Time,TemperatureF,DewpointF,PressureIn,WindDirection,WindDirectionDegrees,WindSpeedMPH,WindSpeedGustMPH,Humidity,HourlyPrecipIn,Conditions,Clouds,dailyrainin,SoftwareType,DateUTC
2013-03-07 00:00:00,37.0,28.1,30.17,West,277,3.0,3.0,70,0.00,,,0.03,Wunderground v.1.15,2013-03-07 05:00:00,
2013-03-07 00:05:00,37.0,28.1,30.17,WNW,287,3.0,8.0,70,0.00,,,0.00,Wunderground v.1.15,2013-03-07 05:05:00,
2013-03-07 00:10:00,37.1,28.2,30.17,WNW,291,3.0,8.0,70,0.00,,,0.00,Wunderground v.1.15,2013-03-07 05:10:00,
2013-03-07 00:15:00,37.1,28.2,30.17,NNW,342,3.0,8.0,70,0.00,,,0.00,Wunderground v.1.15,2013-03-07 05:15:00,
2013-03-07 00:25:00,37.1,28.2,30.17,NW,322,3.0,8.0,70,0.00,,,0.00,Wunderground v.1.15,2013-03-07 05:25:00,
2013-03-07 00:30:00,37.1,28.2,30.17,NNW,330,3.0,3.0,70,0.00,,,0.00,Wunderground v.1.15,2013-03-07 05:30:00,
2013-03-07 00:35:00,37.1,28.2,30.17,NW,304,3.0,5.0,70,0.00,,,0.00,Wunderground v.1.15,2013-03-07 05:35:00,
2013-03-07 00:40:00,37.2,28.3,30.17,WNW,290,3.0,3.0,70,0.00,,,0.00,Wunderground v.1.15,2013-03-07 05:40:00,
2013-03-07 00:50:00,37.2,28.3,30.18,NW,313,3.0,3.0,70,0.00,,,0.00,Wunderground v.1.15,2013-03-07 05:50:00,
2013-03-07 00:55:00,37.2,28.3,30.18,WNW,294,3.0,3.0,70,0.00,,,0.00,Wunderground v.1.15,2013-03-07 05:55:00,
2013-03-07 01:05:00,37.2,28.3,30.18,WNW,284,3.0,8.0,70,0.00,,,0.00,Wunderground v.1.15,2013-03-07 06:05:00,
2013-03-07 01:10:00,37.2,28.3,30.19,NNW,329,2.0,8.0,70,0.00,,,0.00,Wunderground v.1.15,2013-03-07 06:10:00,
2013-03-07 01:20:00,37.2,28.3,30.19,WNW,298,2.0,2.0,70,0.00,,,0.00,Wunderground v.1.15,2013-03-07 06:20:00,
2013-03-07 01:30:00,37.3,28.1,30.19,NW,307,3.0,3.0,69,0.00,,,0.00,Wunderground v.1.15,2013-03-07 06:30:00,
2013-03-07 01:35:00,37.3,28.1,30.20,WNW,293,2.0,3.0,69,0.00,,,0.00,Wunderground v.1.15,2013-03-07 06:35:00,
2013-03-07 01:45:00,37.2,28.0,30.20,WNW,290,3.0,3.0,69,0.00,,,0.00,Wunderground v.1.15,2013-03-07 06:45:00,
2013-03-07 01:55:00,37.2,28.0,30.20,NNW,347,3.0,3.0,69,0.00,,,0.00,Wunderground v.1.15,2013-03-07 06:55:00,
2013-03-07 02:05:00,37.1,27.9,30.20,NNW,347,2.0,12.0,69,0.00,,,0.00,Wunderground v.1.15,2013-03-07 07:05:00,
2013-03-07 02:15:00,37.0,27.8,30.20,NW,326,2.0,12.0,69,0.00,,,0.00,Wunderground v.1.15,2013-03-07 07:15:00,
2013-03-07 02:20:00,37.0,28.1,30.20,WNW,293,2.0,4.0,70,0.00,,,0.00,Wunderground v.1.15,2013-03-07 07:20:00,
2013-03-07 02:30:00,36.9,28.0,30.20,West,274,2.0,2.0,70,0.00,,,0.00,Wunderground v.1.15,2013-03-07 07:30:00,
2013-03-07 02:40:00,36.3,27.8,30.20,West,269,1.0,1.0,71,0.00,,,0.00,Wunderground v.1.15,2013-03-07 07:40:00,
2013-03-07 02:50:00,35.7,27.9,30.19,WNW,284,1.0,2.0,73,0.00,,,0.00,Wunderground v.1.15,2013-03-07 07:50:00,
2013-03-07 02:55:00,35.7,27.9,30.19,West,274,1.0,2.0,73,0.00,,,0.00,Wunderground v.1.15,2013-03-07 07:55:00,
2013-03-07 03:00:00,35.7,27.9,30.19,WNW,289,1.0,1.0,73,0.00,,,0.00,Wunderground v.1.15,2013-03-07 08:00:00,
2013-03-07 03:10:00,35.5,27.7,30.19,West,278,1.0,7.0,73,0.00,,,0.00,Wunderground v.1.15,2013-03-07 08:10:00,
2013-03-07 03:20:00,35.2,27.7,30.19,West,280,1.0,1.0,74,0.00,,,0.00,Wunderground v.1.15,2013-03-07 08:20:00,
2013-03-07 03:30:00,34.4,27.6,30.19,WNW,290,2.0,2.0,76,0.00,,,0.00,Wunderground v.1.15,2013-03-07 08:30:00,
2013-03-07 03:40:00,33.9,27.4,30.19,West,270,1.0,1.0,77,0.00,,,0.00,Wunderground v.1.15,2013-03-07 08:40:00,
2013-03-07 03:50:00,32.8,27.0,30.20,NW,304,1.0,1.0,79,0.00,,,0.00,Wunderground v.1.15,2013-03-07 08:50:00,
2013-03-07 04:00:00,32.8,27.3,30.20,West,281,1.0,1.0,80,0.00,,,0.00,Wunderground v.1.15,2013-03-07 09:00:00,
2013-03-07 04:10:00,32.3,26.8,30.20,WNW,294,0.0,4.0,80,0.00,,,0.00,Wunderground v.1.15,2013-03-07 09:10:00,
2013-03-07 04:20:00,31.1,26.5,30.20,NW,307,0.0,0.0,83,0.00,,,0.00,Wunderground v.1.15,2013-03-07 09:20:00,
2013-03-07 04:35:00,31.2,26.6,30.20,WNW,292,0.0,0.0,83,0.00,,,0.00,Wunderground v.1.15,2013-03-07 09:35:00,
2013-03-07 04:45:00,33.2,27.4,30.21,West,278,1.0,3.0,79,0.00,,,0.00,Wunderground v.1.15,2013-03-07 09:45:00,
2013-03-07 04:55:00,33.7,27.6,30.22,West,276,2.0,2.0,78,0.00,,,0.00,Wunderground v.1.15,2013-03-07 09:55:00,
2013-03-07 05:05:00,33.6,27.8,30.22,West,267,1.0,3.0,79,0.00,,,0.00,Wunderground v.1.15,2013-03-07 10:05:00,
2013-03-07 05:10:00,33.7,27.6,30.22,WNW,288,1.0,3.0,78,0.00,,,0.00,Wunderground v.1.15,2013-03-07 10:10:00,
2013-03-07 05:15:00,33.6,27.8,30.22,WNW,287,1.0,3.0,79,0.00,,,0.00,Wunderground v.1.15,2013-03-07 10:15:00,
2013-03-07 05:25:00,33.8,27.7,30.23,WSW,256,3.0,3.0,78,0.00,,,0.00,Wunderground v.1.15,2013-03-07 10:25:00,
2013-03-07 05:35:00,33.8,28.0,30.23,WNW,294,3.0,3.0,79,0.00,,,0.00,Wunderground v.1.15,2013-03-07 10:35:00,
2013-03-07 05:45:00,33.7,27.9,30.24,WNW,286,3.0,3.0,79,0.00,,,0.00,Wunderground v.1.15,2013-03-07 10:45:00,
2013-03-07 05:50:00,33.6,27.8,30.24,West,278,3.0,3.0,79,0.00,,,0.00,Wunderground v.1.15,2013-03-07 10:50:00,
2013-03-07 06:00:00,33.3,27.8,30.25,West,280,3.0,3.0,80,0.00,,,0.00,Wunderground v.1.15,2013-03-07 11:00:00,
2013-03-07 06:10:00,33.2,27.7,30.25,WNW,287,3.0,5.0,80,0.00,,,0.00,Wunderground v.1.15,2013-03-07 11:10:00,
2013-03-07 06:20:00,33.2,27.7,30.26,West,277,3.0,3.0,80,0.00,,,0.00,Wunderground v.1.15,2013-03-07 11:20:00,
2013-03-07 06:30:00,33.1,27.6,30.26,WNW,293,2.0,3.0,80,0.00,,,0.00,Wunderground v.1.15,2013-03-07 11:30:00,
2013-03-07 06:40:00,33.4,27.9,30.27,WNW,285,4.0,4.0,80,0.00,,,0.00,Wunderground v.1.15,2013-03-07 11:40:00,
2013-03-07 06:45:00,33.5,28.0,30.27,NW,312,4.0,6.0,80,0.00,,,0.00,Wunderground v.1.15,2013-03-07 11:45:00,
2013-03-07 06:55:00,33.7,27.9,30.28,WNW,291,4.0,4.0,79,0.00,,,0.00,Wunderground v.1.15,2013-03-07 11:55:00,
2013-03-07 07:05:00,34.1,28.0,30.28,WNW,291,4.0,6.0,78,0.00,,,0.00,Wunderground v.1.15,2013-03-07 12:05:00,
2013-03-07 07:15:00,34.3,28.2,30.29,WNW,295,4.0,6.0,78,0.00,,,0.00,Wunderground v.1.15,2013-03-07 12:15:00,
2013-03-07 07:25:00,34.6,28.4,30.29,WNW,293,4.0,7.0,78,0.00,,,0.00,Wunderground v.1.15,2013-03-07 12:25:00,
2013-03-07 07:30:00,34.9,28.7,30.30,WNW,285,4.0,4.0,78,0.00,,,0.00,Wunderground v.1.15,2013-03-07 12:30:00,
2013-03-07 07:40:00,35.5,29.0,30.30,WNW,295,3.0,3.0,77,0.00,,,0.00,Wunderground v.1.15,2013-03-07 12:40:00,
2013-03-07 07:50:00,36.2,29.0,30.30,WNW,293,4.0,6.0,75,0.00,,,0.00,Wunderground v.1.15,2013-03-07 12:50:00,
2013-03-07 08:00:00,37.0,29.5,30.30,NW,304,4.0,4.0,74,0.00,,,0.00,Wunderground v.1.15,2013-03-07 13:00:00,
2013-03-07 08:05:00,37.6,29.7,30.30,NW,304,4.0,5.0,73,0.00,,,0.00,Wunderground v.1.15,2013-03-07 13:05:00,
2013-03-07 08:15:00,38.3,29.7,30.31,NW,323,4.0,9.0,71,0.00,,,0.00,Wunderground v.1.15,2013-03-07 13:15:00,
2013-03-07 08:25:00,39.0,30.0,30.31,WNW,297,4.0,4.0,70,0.00,,,0.00,Wunderground v.1.15,2013-03-07 13:25:00,
2013-03-07 08:35:00,39.5,29.8,30.31,WNW,293,5.0,5.0,68,0.00,,,0.00,Wunderground v.1.15,2013-03-07 13:35:00,
2013-03-07 08:40:00,39.7,30.4,30.31,NW,308,5.0,5.0,69,0.00,,,0.00,Wunderground v.1.15,2013-03-07 13:40:00,
2013-03-07 08:50:00,40.4,30.3,30.31,West,266,5.0,7.0,67,0.00,,,0.00,Wunderground v.1.15,2013-03-07 13:50:00,
2013-03-07 09:00:00,40.8,30.3,30.31,NNW,329,5.0,5.0,66,0.00,,,0.00,Wunderground v.1.15,2013-03-07 14:00:00,
2013-03-07 09:10:00,41.3,29.6,30.31,WNW,302,3.0,3.0,63,0.00,,,0.00,Wunderground v.1.15,2013-03-07 14:10:00,
2013-03-07 09:15:00,41.5,29.8,30.31,WNW,301,4.0,9.0,63,0.00,,,0.00,Wunderground v.1.15,2013-03-07 14:15:00,
2013-03-07 09:25:00,42.4,30.7,30.31,West,266,3.0,3.0,63,0.00,,,0.00,Wunderground v.1.15,2013-03-07 14:25:00,
2013-03-07 09:35:00,42.9,30.4,30.31,West,273,5.0,5.0,61,0.00,,,0.00,Wunderground v.1.15,2013-03-07 14:35:00,
2013-03-07 09:45:00,43.2,30.6,30.31,NNE,20,4.0,7.0,61,0.00,,,0.00,Wunderground v.1.15,2013-03-07 14:45:00,
2013-03-07 09:50:00,43.4,30.4,30.31,NNW,344,5.0,6.0,60,0.00,,,0.00,Wunderground v.1.15,2013-03-07 14:50:00,
2013-03-07 09:55:00,43.6,30.2,30.31,NW,316,4.0,6.0,59,0.00,,,0.00,Wunderground v.1.15,2013-03-07 14:55:00,
2013-03-07 10:05:00,43.7,29.9,30.30,WNW,290,5.0,5.0,58,0.00,,,0.00,Wunderground v.1.15,2013-03-07 15:05:00,
2013-03-07 10:15:00,43.9,30.1,30.31,NNW,331,5.0,12.0,58,0.00,,,0.00,Wunderground v.1.15,2013-03-07 15:15:00,
2013-03-07 10:20:00,44.5,30.2,30.31,NW,314,4.0,5.0,57,0.00,,,0.00,Wunderground v.1.15,2013-03-07 15:20:00,
2013-03-07 10:30:00,45.1,30.8,30.31,NE,53,4.0,4.0,57,0.00,,,0.00,Wunderground v.1.15,2013-03-07 15:30:00,
2013-03-07 10:35:00,45.6,30.3,30.31,NE,50,3.0,4.0,55,0.00,,,0.00,Wunderground v.1.15,2013-03-07 15:35:00,
2013-03-07 10:45:00,45.7,30.9,30.31,NW,312,4.0,4.0,56,0.00,,,0.00,Wunderground v.1.15,2013-03-07 15:45:00,
2013-03-07 10:55:00,46.3,30.5,30.31,NW,319,3.0,7.0,54,0.00,,,0.00,Wunderground v.1.15,2013-03-07 15:55:00,
2013-03-07 11:00:00,46.1,30.4,30.30,WNW,294,4.0,4.0,54,0.00,,,0.00,Wunderground v.1.15,2013-03-07 16:00:00,
2013-03-07 11:05:00,46.6,30.8,30.30,NW,315,3.0,6.0,54,0.00,,,0.00,Wunderground v.1.15,2013-03-07 16:05:00,
2013-03-07 11:15:00,45.7,30.9,30.30,SW,229,4.0,4.0,56,0.00,,,0.00,Wunderground v.1.15,2013-03-07 16:15:00,
2013-03-07 11:20:00,46.6,31.3,30.30,WNW,287,3.0,3.0,55,0.00,,,0.00,Wunderground v.1.15,2013-03-07 16:20:00,
2013-03-07 11:30:00,47.3,31.0,30.30,NW,325,3.0,3.0,53,0.00,,,0.00,Wunderground v.1.15,2013-03-07 16:30:00,
2013-03-07 11:40:00,46.5,29.3,30.30,NW,304,4.0,4.0,51,0.00,,,0.00,Wunderground v.1.15,2013-03-07 16:40:00,
2013-03-07 11:45:00,47.1,30.4,30.30,NNW,337,4.0,6.0,52,0.00,,,0.00,Wunderground v.1.15,2013-03-07 16:45:00,
2013-03-07 11:50:00,46.6,31.7,30.30,WNW,301,5.0,8.0,56,0.00,,,0.00,Wunderground v.1.15,2013-03-07 16:50:00,
2013-03-07 12:00:00,47.2,30.5,30.30,WNW,301,4.0,4.0,52,0.00,,,0.00,Wunderground v.1.15,2013-03-07 17:00:00,
2013-03-07 12:05:00,47.2,29.5,30.29,NW,309,3.0,6.0,50,0.00,,,0.00,Wunderground v.1.15,2013-03-07 17:05:00,
2013-03-07 12:15:00,47.6,31.3,30.29,NNW,335,4.0,6.0,53,0.00,,,0.00,Wunderground v.1.15,2013-03-07 17:15:00,
2013-03-07 12:20:00,47.6,29.4,30.29,West,274,4.0,4.0,49,0.00,,,0.00,Wunderground v.1.15,2013-03-07 17:20:00,
2013-03-07 12:30:00,47.6,30.3,30.28,NNW,330,3.0,4.0,51,0.00,,,0.00,Wunderground v.1.15,2013-03-07 17:30:00,
2013-03-07 12:40:00,48.2,31.9,30.27,West,271,2.0,6.0,53,0.00,,,0.00,Wunderground v.1.15,2013-03-07 17:40:00,
2013-03-07 12:50:00,48.4,31.1,30.27,West,276,4.0,4.0,51,0.00,,,0.00,Wunderground v.1.15,2013-03-07 17:50:00,
2013-03-07 13:00:00,48.6,30.3,30.27,WNW,286,3.0,3.0,49,0.00,,,0.00,Wunderground v.1.15,2013-03-07 18:00:00,
2013-03-07 13:05:00,48.3,30.0,30.26,NW,311,4.0,7.0,49,0.00,,,0.00,Wunderground v.1.15,2013-03-07 18:05:00,
2013-03-07 13:15:00,49.1,30.7,30.26,WNW,293,4.0,5.0,49,0.00,,,0.00,Wunderground v.1.15,2013-03-07 18:15:00,
2013-03-07 13:25:00,49.9,31.0,30.26,West,274,6.0,6.0,48,0.00,,,0.00,Wunderground v.1.15,2013-03-07 18:25:00,
2013-03-07 13:35:00,49.9,31.5,30.26,West,280,4.0,6.0,49,0.00,,,0.00,Wunderground v.1.15,2013-03-07 18:35:00,
2013-03-07 13:45:00,49.8,29.8,30.25,WNW,301,4.0,7.0,46,0.00,,,0.00,Wunderground v.1.15,2013-03-07 18:45:00,
2013-03-07 13:55:00,49.4,30.0,30.25,NW,321,5.0,7.0,47,0.00,,,0.00,Wunderground v.1.15,2013-03-07 18:55:00,
2013-03-07 14:05:00,50.1,31.2,30.24,NW,308,3.0,11.0,48,0.00,,,0.00,Wunderground v.1.15,2013-03-07 19:05:00,
2013-03-07 14:10:00,50.3,30.8,30.24,NW,322,4.0,4.0,47,0.00,,,0.00,Wunderground v.1.15,2013-03-07 19:10:00,
2013-03-07 14:20:00,50.8,30.7,30.24,NE,34,3.0,3.0,46,0.00,,,0.00,Wunderground v.1.15,2013-03-07 19:20:00,
2013-03-07 14:30:00,50.6,30.0,30.24,SSE,162,5.0,5.0,45,0.00,,,0.00,Wunderground v.1.15,2013-03-07 19:30:00,
2013-03-07 14:40:00,51.5,30.8,30.24,NNE,27,3.0,3.0,45,0.00,,,0.00,Wunderground v.1.15,2013-03-07 19:40:00,
2013-03-07 14:50:00,51.4,30.2,30.24,NW,323,4.0,5.0,44,0.00,,,0.00,Wunderground v.1.15,2013-03-07 19:50:00,
2013-03-07 15:00:00,51.8,30.6,30.24,WNW,293,3.0,3.0,44,0.00,,,0.00,Wunderground v.1.15,2013-03-07 20:00:00,
2013-03-07 15:05:00,51.6,30.4,30.24,NW,305,3.0,4.0,44,0.00,,,0.00,Wunderground v.1.15,2013-03-07 20:05:00,
2013-03-07 15:15:00,52.5,30.6,30.24,NNE,32,3.0,15.0,43,0.00,,,0.00,Wunderground v.1.15,2013-03-07 20:15:00,
2013-03-07 15:20:00,52.6,30.1,30.24,NW,323,2.0,2.0,42,0.00,,,0.00,Wunderground v.1.15,2013-03-07 20:20:00,
2013-03-07 15:30:00,52.4,29.4,30.24,NNW,335,3.0,4.0,41,0.00,,,0.00,Wunderground v.1.15,2013-03-07 20:30:00,
2013-03-07 15:35:00,51.7,30.5,30.24,NW,314,4.0,4.0,44,0.00,,,0.00,Wunderground v.1.15,2013-03-07 20:35:00,
2013-03-07 15:40:00,52.2,30.4,30.24,NW,316,4.0,6.0,43,0.00,,,0.00,Wunderground v.1.15,2013-03-07 20:40:00,
2013-03-07 15:50:00,52.5,31.8,30.24,NW,314,3.0,3.0,45,0.00,,,0.00,Wunderground v.1.15,2013-03-07 20:50:00,
2013-03-07 16:00:00,52.6,31.3,30.24,WSW,248,3.0,3.0,44,0.00,,,0.00,Wunderground v.1.15,2013-03-07 21:00:00,
2013-03-07 16:05:00,52.9,31.0,30.24,WNW,285,3.0,10.0,43,0.00,,,0.00,Wunderground v.1.15,2013-03-07 21:05:00,
2013-03-07 16:15:00,53.4,31.4,30.24,SSW,208,2.0,10.0,43,0.00,,,0.00,Wunderground v.1.15,2013-03-07 21:15:00,
2013-03-07 16:20:00,53.6,31.6,30.24,NNW,347,2.0,3.0,43,0.00,,,0.00,Wunderground v.1.15,2013-03-07 21:20:00,
2013-03-07 16:30:00,52.8,32.0,30.24,WNW,297,3.0,3.0,45,0.00,,,0.00,Wunderground v.1.15,2013-03-07 21:30:00,
2013-03-07 16:40:00,52.7,31.4,30.25,North,9,3.0,3.0,44,0.00,,,0.00,Wunderground v.1.15,2013-03-07 21:40:00,
2013-03-07 16:50:00,52.5,31.2,30.25,NW,313,2.0,5.0,44,0.00,,,0.00,Wunderground v.1.15,2013-03-07 21:50:00,
2013-03-07 17:00:00,52.0,30.2,30.25,WNW,301,4.0,5.0,43,0.00,,,0.00,Wunderground v.1.15,2013-03-07 22:00:00,
2013-03-07 17:10:00,51.5,30.8,30.25,NNW,337,3.0,3.0,45,0.00,,,0.00,Wunderground v.1.15,2013-03-07 22:10:00,
2013-03-07 17:20:00,51.9,31.2,30.26,NNW,335,1.0,1.0,45,0.00,,,0.00,Wunderground v.1.15,2013-03-07 22:20:00,
2013-03-07 17:25:00,51.6,30.9,30.26,NW,316,1.0,1.0,45,0.00,,,0.00,Wunderground v.1.15,2013-03-07 22:25:00,
2013-03-07 17:35:00,50.2,30.7,30.27,NNW,346,2.0,2.0,47,0.00,,,0.00,Wunderground v.1.15,2013-03-07 22:35:00,
2013-03-07 17:40:00,49.5,30.1,30.27,NNW,330,2.0,3.0,47,0.00,,,0.00,Wunderground v.1.15,2013-03-07 22:40:00,
2013-03-07 17:50:00,48.3,30.0,30.28,NW,326,2.0,2.0,49,0.00,,,0.00,Wunderground v.1.15,2013-03-07 22:50:00,
2013-03-07 17:55:00,47.7,30.0,30.28,WNW,293,2.0,3.0,50,0.00,,,0.00,Wunderground v.1.15,2013-03-07 22:55:00,
2013-03-07 18:05:00,46.6,29.9,30.28,West,259,1.0,11.0,52,0.00,,,0.00,Wunderground v.1.15,2013-03-07 23:05:00,
2013-03-07 18:10:00,46.1,29.4,30.28,WNW,300,1.0,1.0,52,0.00,,,0.00,Wunderground v.1.15,2013-03-07 23:10:00,
2013-03-07 18:15:00,45.6,29.4,30.29,West,281,0.0,3.0,53,0.00,,,0.00,Wunderground v.1.15,2013-03-07 23:15:00,
2013-03-07 18:25:00,44.9,29.2,30.30,WNW,295,1.0,1.0,54,0.00,,,0.00,Wunderground v.1.15,2013-03-07 23:25:00,
2013-03-07 18:35:00,44.3,28.7,30.30,NW,307,2.0,4.0,54,0.00,,,0.00,Wunderground v.1.15,2013-03-07 23:35:00,
2013-03-07 18:50:00,43.7,28.1,30.31,WNW,297,2.0,2.0,54,0.00,,,0.00,Wunderground v.1.15,2013-03-07 23:50:00,
2013-03-07 19:00:00,43.3,27.8,30.31,NNW,328,2.0,2.0,54,0.00,,,0.00,Wunderground v.1.15,2013-03-08 00:00:00,
2013-03-07 19:05:00,43.0,27.9,30.31,NW,326,1.0,8.0,55,0.00,,,0.00,Wunderground v.1.15,2013-03-08 00:05:00,
2013-03-07 19:10:00,42.7,28.1,30.31,WNW,295,1.0,8.0,56,0.00,,,0.00,Wunderground v.1.15,2013-03-08 00:10:00,
2013-03-07 19:20:00,42.3,27.7,30.32,NNW,333,1.0,2.0,56,0.00,,,0.00,Wunderground v.1.15,2013-03-08 00:20:00,
2013-03-07 19:30:00,42.1,27.9,30.32,WNW,284,2.0,2.0,57,0.00,,,0.00,Wunderground v.1.15,2013-03-08 00:30:00,
2013-03-07 19:35:00,41.9,27.8,30.33,NW,308,1.0,2.0,57,0.00,,,0.00,Wunderground v.1.15,2013-03-08 00:35:00,
2013-03-07 19:45:00,41.5,27.4,30.33,NNW,329,2.0,5.0,57,0.00,,,0.00,Wunderground v.1.15,2013-03-08 00:45:00,
2013-03-07 19:55:00,41.6,27.1,30.33,NW,304,3.0,3.0,56,0.00,,,0.00,Wunderground v.1.15,2013-03-08 00:55:00,
2013-03-07 20:00:00,41.4,26.9,30.33,NW,325,3.0,3.0,56,0.00,,,0.00,Wunderground v.1.15,2013-03-08 01:00:00,
2013-03-07 20:10:00,41.1,27.0,30.34,NW,304,3.0,7.0,57,0.00,,,0.00,Wunderground v.1.15,2013-03-08 01:10:00,
2013-03-07 20:20:00,40.8,27.2,30.34,NW,315,2.0,2.0,58,0.00,,,0.00,Wunderground v.1.15,2013-03-08 01:20:00,
2013-03-07 20:30:00,40.1,26.9,30.35,West,260,1.0,3.0,59,0.00,,,0.00,Wunderground v.1.15,2013-03-08 01:30:00,
2013-03-07 20:35:00,39.8,27.0,30.35,NW,311,1.0,3.0,60,0.00,,,0.00,Wunderground v.1.15,2013-03-08 01:35:00,
2013-03-07 20:45:00,39.7,26.5,30.35,NW,308,2.0,4.0,59,0.00,,,0.00,Wunderground v.1.15,2013-03-08 01:45:00,
2013-03-07 20:55:00,39.6,26.4,30.35,NW,311,2.0,4.0,59,0.00,,,0.00,Wunderground v.1.15,2013-03-08 01:55:00,
2013-03-07 21:05:00,39.3,26.6,30.36,NNW,332,2.0,8.0,60,0.00,,,0.00,Wunderground v.1.15,2013-03-08 02:05:00,
2013-03-07 21:10:00,39.1,26.4,30.37,NW,315,2.0,8.0,60,0.00,,,0.00,Wunderground v.1.15,2013-03-08 02:10:00,
2013-03-07 21:20:00,38.8,26.1,30.36,WNW,297,2.0,2.0,60,0.00,,,0.00,Wunderground v.1.15,2013-03-08 02:20:00,
2013-03-07 21:25:00,38.8,26.1,30.36,WNW,298,2.0,2.0,60,0.00,,,0.00,Wunderground v.1.15,2013-03-08 02:25:00,
2013-03-07 21:30:00,38.7,26.4,30.36,NW,326,2.0,2.0,61,0.00,,,0.00,Wunderground v.1.15,2013-03-08 02:30:00,
2013-03-07 21:40:00,38.6,25.9,30.36,NW,316,2.0,3.0,60,0.00,,,0.00,Wunderground v.1.15,2013-03-08 02:40:00,
2013-03-07 21:50:00,38.4,25.7,30.36,NW,311,2.0,2.0,60,0.00,,,0.00,Wunderground v.1.15,2013-03-08 02:50:00,
2013-03-07 21:55:00,38.4,25.7,30.37,NW,319,2.0,2.0,60,0.00,,,0.00,Wunderground v.1.15,2013-03-08 02:55:00,
2013-03-07 22:00:00,38.2,25.9,30.37,NW,326,1.0,2.0,61,0.00,,,0.00,Wunderground v.1.15,2013-03-08 03:00:00,
2013-03-07 22:10:00,37.9,25.6,30.36,NW,304,1.0,7.0,61,0.00,,,0.00,Wunderground v.1.15,2013-03-08 03:10:00,
2013-03-07 22:20:00,37.8,25.5,30.36,WNW,288,2.0,3.0,61,0.00,,,0.00,Wunderground v.1.15,2013-03-08 03:20:00,
2013-03-07 22:30:00,37.6,25.4,30.36,NW,321,3.0,3.0,61,0.00,,,0.00,Wunderground v.1.15,2013-03-08 03:30:00,
2013-03-07 22:40:00,37.3,25.5,30.37,NW,322,1.0,1.0,62,0.00,,,0.00,Wunderground v.1.15,2013-03-08 03:40:00,
2013-03-07 22:45:00,37.1,24.9,30.37,NW,317,1.0,2.0,61,0.00,,,0.00,Wunderground v.1.15,2013-03-08 03:45:00,
2013-03-07 22:55:00,36.9,25.1,30.37,NW,314,2.0,2.0,62,0.00,,,0.00,Wunderground v.1.15,2013-03-08 03:55:00,
2013-03-07 23:05:00,36.9,25.1,30.37,NNW,331,2.0,3.0,62,0.00,,,0.00,Wunderground v.1.15,2013-03-08 04:05:00,
2013-03-07 23:15:00,36.9,25.1,30.37,WNW,291,2.0,8.0,62,0.00,,,0.00,Wunderground v.1.15,2013-03-08 04:15:00,
2013-03-07 23:25:00,36.7,24.9,30.36,WNW,289,2.0,2.0,62,0.00,,,0.00,Wunderground v.1.15,2013-03-08 04:25:00,
2013-03-07 23:30:00,36.7,25.3,30.36,WNW,283,1.0,1.0,63,0.00,,,0.00,Wunderground v.1.15,2013-03-08 04:30:00,
2013-03-07 23:40:00,36.4,24.6,30.36,NW,311,1.0,1.0,62,0.00,,,0.00,Wunderground v.1.15,2013-03-08 04:40:00,
2013-03-07 23:45:00,36.3,24.9,30.36,NW,311,2.0,2.0,63,0.00,,,0.00,Wunderground v.1.15,2013-03-08 04:45:00,
2013-03-07 23:55:00,36.2,24.8,30.36,WNW,287,2.0,2.0,63,0.00,,,0.00,Wunderground v.1.15,2013-03-08 04:55:00,